createdAt,value
2018-08-03T00:01:36.084Z,24.70
2018-08-03T00:06:20.805Z,24.54
2018-08-03T00:11:04.294Z,24.79
2018-08-03T00:15:51.824Z,24.46
2018-08-03T00:20:35.194Z,24.21
2018-08-03T00:25:18.865Z,24.57
2018-08-03T00:30:06.456Z,24.49
2018-08-03T00:34:50.826Z,24.15
2018-08-03T00:39:37.344Z,24.36
2018-08-03T00:44:20.965Z,24.07
2018-08-03T00:49:09.027Z,24.00
2018-08-03T00:53:52.648Z,24.47
2018-08-03T00:58:37.162Z,24.34
2018-08-03T01:03:20.890Z,24.08
2018-08-03T01:08:08.093Z,23.86
2018-08-03T01:12:51.775Z,24.04
2018-08-03T01:17:35.183Z,23.94
2018-08-03T01:22:18.738Z,23.48
2018-08-03T01:27:02.276Z,23.87
2018-08-03T01:31:45.820Z,23.79
2018-08-03T01:36:30.705Z,23.77
2018-08-03T01:41:14.370Z,24.06
2018-08-03T01:45:59.088Z,23.54
2018-08-03T01:50:42.580Z,23.69
2018-08-03T01:55:26.067Z,23.93
2018-08-03T02:00:09.768Z,23.83
2018-08-03T02:04:53.305Z,23.86
2018-08-03T02:09:36.918Z,23.89
2018-08-03T02:14:20.515Z,23.78
2018-08-03T02:19:07.447Z,23.54
2018-08-03T02:23:51.071Z,23.44
2018-08-03T02:28:35.798Z,23.52
2018-08-03T02:33:19.440Z,23.62
2018-08-03T02:38:03.039Z,23.54
2018-08-03T02:42:46.505Z,23.61
2018-08-03T02:47:30.113Z,23.69
2018-08-03T02:52:13.781Z,23.33
2018-08-03T02:56:58.496Z,23.62
2018-08-03T03:01:42.079Z,23.32
2018-08-03T03:06:25.800Z,23.10
2018-08-03T03:11:09.491Z,23.06
2018-08-03T03:15:56.291Z,23.28
2018-08-03T03:20:39.818Z,23.08
2018-08-03T03:25:25.059Z,23.25
2018-08-03T03:30:09.555Z,22.93
2018-08-03T03:34:53.093Z,23.01
2018-08-03T03:39:37.648Z,23.18
2018-08-03T03:44:21.339Z,23.10
2018-08-03T03:49:08.799Z,23.02
2018-08-03T03:53:52.193Z,23.13
2018-08-03T03:58:35.849Z,22.91
2018-08-03T04:03:19.509Z,23.00
2018-08-03T04:08:04.194Z,23.05
2018-08-03T04:12:47.703Z,22.74
2018-08-03T04:17:31.521Z,23.04
2018-08-03T04:22:15.102Z,22.90
2018-08-03T04:26:59.845Z,23.04
2018-08-03T04:31:43.345Z,22.79
2018-08-03T04:36:27.132Z,23.00
2018-08-03T04:41:12.670Z,22.80
2018-08-03T04:45:56.903Z,22.54
2018-08-03T04:50:40.408Z,23.17
2018-08-03T04:55:27.657Z,22.92
2018-08-03T05:00:11.208Z,23.08
2018-08-03T05:04:54.716Z,23.22
2018-08-03T05:09:38.352Z,23.12
2018-08-03T05:14:21.945Z,23.32
2018-08-03T05:19:05.620Z,23.43
2018-08-03T05:23:49.265Z,23.52
2018-08-03T05:28:36.186Z,23.52
2018-08-03T05:33:19.777Z,23.72
2018-08-03T05:38:03.270Z,23.76
2018-08-03T05:42:46.789Z,23.83
2018-08-03T05:47:36.766Z,23.72
2018-08-03T05:52:20.401Z,23.88
2018-08-03T05:57:04.065Z,23.95
2018-08-03T06:01:47.775Z,24.05
2018-08-03T06:06:35.049Z,24.09
2018-08-03T06:11:18.694Z,24.04
2018-08-03T06:16:12.019Z,24.18
2018-08-03T06:20:59.926Z,24.21
2018-08-03T06:25:49.365Z,24.30
2018-08-03T06:30:32.892Z,24.31
2018-08-03T06:35:17.494Z,24.46
2018-08-03T06:40:01.008Z,24.53
2018-08-03T06:44:44.660Z,24.47
2018-08-03T06:49:28.086Z,24.74
2018-08-03T06:54:11.783Z,24.92
2018-08-03T06:58:56.382Z,25.05
2018-08-03T07:03:39.982Z,25.07
2018-08-03T07:08:24.801Z,25.12
2018-08-03T07:13:08.496Z,25.09
2018-08-03T07:17:52.468Z,25.23
2018-08-03T07:22:36.291Z,25.29
2018-08-03T07:27:20.090Z,25.36
2018-08-03T07:32:03.761Z,25.33
2018-08-03T07:36:47.532Z,25.83
2018-08-03T07:41:31.120Z,25.40
2018-08-03T07:46:14.987Z,25.14
2018-08-03T07:50:58.601Z,25.21
2018-08-03T07:55:43.170Z,25.55
2018-08-03T08:00:27.294Z,25.42
2018-08-03T08:05:13.311Z,25.43
2018-08-03T08:09:57.830Z,25.51
2018-08-03T08:14:41.686Z,25.38
2018-08-03T08:19:25.956Z,25.93
2018-08-03T08:24:09.549Z,26.22
2018-08-03T08:28:59.360Z,25.87
2018-08-03T08:33:42.873Z,25.95
2018-08-03T08:38:30.003Z,25.71
2018-08-03T08:43:13.695Z,25.63
2018-08-03T08:47:58.545Z,25.39
2018-08-03T08:52:42.401Z,25.33
2018-08-03T08:57:29.564Z,25.55
2018-08-03T09:02:12.983Z,25.71
2018-08-03T09:06:56.817Z,25.59
2018-08-03T09:11:40.397Z,25.53
2018-08-03T09:16:27.233Z,25.43
2018-08-03T09:21:10.761Z,25.48
2018-08-03T09:25:54.350Z,26.54
2018-08-03T09:30:37.799Z,26.03
2018-08-03T09:35:22.120Z,27.37
2018-08-03T09:40:05.739Z,27.20
2018-08-03T09:44:53.357Z,26.87
2018-08-03T09:49:37.017Z,27.49
2018-08-03T09:54:24.229Z,26.53
2018-08-03T09:59:07.814Z,26.34
2018-08-03T10:03:51.551Z,26.11
2018-08-03T10:08:37.167Z,26.19
2018-08-03T10:13:20.785Z,26.19
2018-08-03T10:18:07.362Z,26.06
2018-08-03T10:24:20.482Z,25.99
2018-08-03T10:29:04.151Z,26.12
2018-08-03T10:33:47.744Z,25.87
2018-08-03T10:38:32.263Z,25.80
2018-08-03T10:43:15.832Z,26.12
2018-08-03T10:48:00.355Z,26.24
2018-08-03T10:52:44.486Z,26.54
2018-08-03T10:57:28.130Z,26.61
2018-08-03T11:02:11.602Z,26.54
2018-08-03T11:06:58.984Z,26.78
2018-08-03T11:11:42.489Z,26.93
2018-08-03T11:16:29.454Z,26.70
2018-08-03T11:21:13.106Z,27.23
2018-08-03T11:26:00.354Z,26.82
2018-08-03T11:30:43.774Z,27.39
2018-08-03T11:35:27.663Z,27.42
2018-08-03T11:40:11.402Z,27.38
2018-08-03T11:44:58.440Z,27.88
2018-08-03T11:49:41.853Z,27.70
2018-08-03T11:54:25.589Z,27.38
2018-08-03T11:59:09.186Z,27.84
2018-08-03T12:03:52.742Z,28.31
2018-08-03T12:08:45.643Z,28.04
2018-08-03T12:13:32.251Z,27.91
2018-08-03T12:18:17.112Z,27.82
2018-08-03T12:23:00.739Z,27.81
2018-08-03T12:27:50.010Z,28.61
2018-08-03T12:32:33.620Z,27.92
2018-08-03T12:37:23.101Z,28.25
2018-08-03T12:42:06.729Z,28.34
2018-08-03T12:46:50.635Z,28.27
2018-08-03T12:51:34.144Z,28.48
2018-08-03T12:56:21.688Z,28.55
2018-08-03T13:01:05.288Z,28.45
2018-08-03T13:05:52.298Z,28.76
2018-08-03T13:10:35.758Z,28.11
2018-08-03T13:15:19.279Z,28.81
2018-08-03T13:20:02.750Z,28.95
2018-08-03T13:24:49.982Z,28.69
2018-08-03T13:29:33.687Z,28.96
2018-08-03T13:34:20.284Z,28.99
2018-08-03T13:39:06.018Z,29.13
2018-08-03T13:43:50.752Z,28.96
2018-08-03T13:48:34.850Z,29.10
2018-08-03T13:53:18.335Z,29.46
2018-08-03T13:58:02.237Z,29.10
2018-08-03T14:02:45.730Z,28.97
2018-08-03T14:07:29.337Z,28.74
2018-08-03T14:12:12.868Z,29.00
2018-08-03T14:16:57.271Z,29.01
2018-08-03T14:21:40.896Z,29.16
2018-08-03T14:26:25.336Z,29.20
2018-08-03T14:31:08.833Z,29.22
2018-08-03T14:35:52.495Z,29.16
2018-08-03T14:40:36.162Z,28.95
2018-08-03T14:45:20.782Z,29.11
2018-08-03T14:50:04.958Z,29.19
2018-08-03T14:54:51.719Z,29.07
2018-08-03T14:59:35.118Z,28.90
2018-08-03T15:04:21.713Z,28.88
2018-08-03T15:09:10.245Z,28.92
2018-08-03T15:13:54.815Z,28.47
2018-08-03T15:18:38.354Z,28.61
2018-08-03T15:23:21.930Z,28.51
2018-08-03T15:28:05.642Z,28.69
2018-08-03T15:32:49.288Z,28.55
2018-08-03T15:37:39.195Z,28.60
2018-08-03T15:42:22.689Z,28.50
2018-08-03T15:47:06.402Z,28.62
2018-08-03T15:51:50.019Z,28.49
2018-08-03T15:56:34.491Z,28.50
2018-08-03T16:01:22.205Z,28.42
2018-08-03T16:06:09.752Z,28.45
2018-08-03T16:10:53.313Z,28.49
2018-08-03T16:15:37.089Z,28.46
2018-08-03T16:20:20.654Z,28.39
2018-08-03T16:25:05.913Z,28.33
2018-08-03T16:29:50.415Z,28.38
2018-08-03T16:34:34.249Z,28.37
2018-08-03T16:39:18.730Z,28.36
2018-08-03T16:44:05.809Z,28.30
2018-08-03T16:48:52.290Z,28.34
2018-08-03T16:53:41.157Z,28.36
2018-08-03T16:58:24.798Z,28.22
2018-08-03T17:03:08.530Z,28.14
2018-08-03T17:07:52.327Z,28.04
2018-08-03T17:12:36.030Z,28.07
2018-08-03T17:17:24.553Z,28.12
2018-08-03T17:22:08.070Z,27.94
2018-08-03T17:26:55.156Z,27.84
2018-08-03T17:31:38.794Z,27.80
2018-08-03T17:36:22.802Z,27.72
2018-08-03T17:41:06.466Z,27.63
2018-08-03T17:45:53.752Z,27.71
2018-08-03T17:50:37.367Z,27.52
2018-08-03T17:55:21.929Z,27.43
2018-08-03T18:00:05.603Z,27.75
2018-08-03T18:04:54.756Z,27.28
2018-08-03T18:09:38.250Z,27.46
2018-08-03T18:14:25.512Z,27.43
2018-08-03T18:19:08.960Z,27.29
2018-08-03T18:23:56.409Z,27.34
2018-08-03T18:28:40.242Z,27.20
2018-08-03T18:33:27.343Z,27.15
2018-08-03T18:38:12.389Z,27.35
2018-08-03T18:42:58.545Z,27.26
2018-08-03T18:47:43.832Z,26.89
2018-08-03T18:52:28.260Z,26.79
2018-08-03T18:57:12.227Z,26.75
2018-08-03T19:01:56.132Z,27.09
2018-08-03T19:06:39.953Z,27.11
2018-08-03T19:11:23.694Z,26.65
2018-08-03T19:16:10.711Z,26.63
2018-08-03T19:20:54.398Z,27.09
2018-08-03T19:25:38.789Z,27.00
2018-08-03T19:30:22.226Z,26.84
2018-08-03T19:35:05.991Z,26.69
2018-08-03T19:39:49.593Z,26.54
2018-08-03T19:44:34.259Z,26.44
2018-08-03T19:49:17.857Z,26.88
2018-08-03T19:54:06.610Z,26.87
2018-08-03T19:58:50.472Z,26.70
2018-08-03T20:03:37.320Z,26.79
2018-08-03T20:08:20.913Z,26.78
2018-08-03T20:13:04.526Z,26.77
2018-08-03T20:17:48.003Z,26.70
2018-08-03T20:22:31.547Z,26.72
2018-08-03T20:27:17.025Z,26.62
2018-08-03T20:32:00.516Z,26.47
2018-08-03T20:36:44.157Z,26.45
2018-08-03T20:41:27.818Z,26.55
2018-08-03T20:46:14.308Z,26.67
2018-08-03T20:50:57.805Z,26.36
2018-08-03T20:55:46.926Z,26.50
2018-08-03T21:00:30.585Z,26.60
2018-08-03T21:05:18.849Z,26.45
2018-08-03T21:10:02.300Z,26.33
2018-08-03T21:14:49.457Z,26.44
2018-08-03T21:19:33.049Z,26.19
2018-08-03T21:24:19.543Z,26.16
2018-08-03T21:29:03.162Z,26.03
2018-08-03T21:33:49.851Z,26.24
2018-08-03T21:38:33.296Z,25.89
2018-08-03T21:43:17.839Z,25.97
2018-08-03T21:48:01.450Z,26.06
2018-08-03T21:52:45.019Z,26.03
2018-08-03T21:57:29.169Z,26.16
2018-08-03T22:02:12.541Z,26.26
2018-08-03T22:06:56.400Z,26.04
2018-08-03T22:11:39.849Z,25.87
2018-08-03T22:16:27.194Z,25.74
2018-08-03T22:21:10.727Z,25.69
2018-08-03T22:25:58.236Z,25.81
2018-08-03T22:30:41.838Z,25.79
2018-08-03T22:35:25.354Z,25.84
2018-08-03T22:40:08.857Z,25.88
2018-08-03T22:44:56.036Z,25.69
2018-08-03T22:49:39.734Z,25.81
2018-08-03T22:54:24.395Z,25.57
2018-08-03T22:59:07.984Z,25.81
2018-08-03T23:03:55.397Z,25.98
2018-08-03T23:08:38.901Z,25.80
2018-08-03T23:13:26.022Z,25.70
2018-08-03T23:18:09.470Z,25.38
2018-08-03T23:22:53.208Z,25.43
2018-08-03T23:27:36.726Z,25.35
2018-08-03T23:32:21.525Z,25.61
2018-08-03T23:37:05.057Z,25.52
2018-08-03T23:41:48.557Z,25.47
2018-08-03T23:46:35.800Z,25.30
2018-08-03T23:51:19.153Z,25.24
2018-08-03T23:56:03.885Z,25.39
